Terminal Aerodrome Forecast
Issued by NWS

Home | Current Version | Previous Version | Text Only | Print | Product List | Glossary Off
Versions: 1 2 3 4 5 6 7 8 9 10 11 12 13 14 15 16

000
FTUS43 KMPX 242324
TAFRWF
TAF
KRWF 242324Z 2500/2524 14012KT 3SM -RASN BR OVC020
     FM250300 15010KT 6SM BR OVC008
     FM250900 27014G20KT P6SM BKN015
     FM251500 30018G30KT P6SM SCT015 BKN025
     FM251800 30020G32KT P6SM BKN050=

USA.gov is the U.S. government's official web portal to all federal, state and local government web resources and services.